createdAt,value
2022-11-15T00:01:10.416Z,101679.97
2022-11-15T00:03:37.688Z,101728.75
2022-11-15T00:06:07.686Z,101709.88
2022-11-15T00:08:37.614Z,101691.44
2022-11-15T00:11:05.697Z,101715.19
2022-11-15T00:13:33.905Z,101716.47
2022-11-15T00:16:02.256Z,101690.13
2022-11-15T00:18:31.145Z,101716.31
2022-11-15T00:21:05.296Z,101711.00
2022-11-15T00:23:32.240Z,101696.56
2022-11-15T00:25:59.685Z,101680.75
2022-11-15T00:28:36.527Z,101711.88
2022-11-15T00:31:14.461Z,101691.56
2022-11-15T00:33:44.547Z,101694.63
2022-11-15T00:36:12.117Z,101693.13
2022-11-15T00:38:50.248Z,101677.72
2022-11-15T00:41:16.814Z,101676.38
2022-11-15T00:43:44.889Z,101688.91
2022-11-15T00:46:11.848Z,101633.16
2022-11-15T00:48:38.879Z,101648.44
2022-11-15T00:51:05.536Z,101686.81
2022-11-15T00:53:32.347Z,101667.94
2022-11-15T00:56:02.824Z,101689.50
2022-11-15T00:58:30.387Z,101665.19
2022-11-15T01:00:57.896Z,101686.53
2022-11-15T01:03:24.687Z,101689.00
2022-11-15T01:05:51.240Z,101685.81
2022-11-15T01:08:18.955Z,101677.41
2022-11-15T01:10:45.665Z,101666.34
2022-11-15T01:13:12.311Z,101691.00
2022-11-15T01:15:42.057Z,101654.16
2022-11-15T01:18:08.920Z,101684.09
2022-11-15T01:20:37.557Z,101687.72
2022-11-15T01:23:04.567Z,101679.75
2022-11-15T01:25:31.217Z,101688.47
2022-11-15T01:27:58.286Z,101613.53
2022-11-15T01:30:24.920Z,101644.00
2022-11-15T01:32:54.301Z,101641.66
2022-11-15T01:35:21.944Z,101672.19
2022-11-15T01:37:48.698Z,101675.63
2022-11-15T01:40:16.067Z,101669.00
2022-11-15T01:42:43.094Z,101662.13
2022-11-15T01:45:16.804Z,101652.47
2022-11-15T01:47:59.535Z,101587.34
2022-11-15T01:50:33.654Z,101670.91
2022-11-15T01:53:01.358Z,101666.06
2022-11-15T01:55:31.753Z,101650.56
2022-11-15T01:58:02.972Z,101650.69
2022-11-15T02:00:31.921Z,101652.97
2022-11-15T02:02:58.653Z,101646.97
2022-11-15T02:05:25.792Z,101638.47
2022-11-15T02:07:59.244Z,101628.69
2022-11-15T02:10:36.002Z,101628.69
2022-11-15T02:13:13.128Z,101656.50
2022-11-15T02:16:14.931Z,101541.56
2022-11-15T02:18:56.991Z,101653.94
2022-11-15T02:21:24.157Z,101654.69
2022-11-15T02:23:59.210Z,101648.41
2022-11-15T02:26:38.590Z,101644.91
2022-11-15T02:29:28.485Z,101619.16
2022-11-15T02:32:20.639Z,101645.25
2022-11-15T02:35:26.858Z,101642.91
2022-11-15T02:38:14.915Z,101609.81
2022-11-15T02:41:05.825Z,101627.00
2022-11-15T02:44:12.803Z,101631.25
2022-11-15T02:47:14.526Z,101627.22
2022-11-15T02:50:18.854Z,101553.44
2022-11-15T02:52:51.648Z,101619.38
2022-11-15T02:55:39.722Z,101615.28
2022-11-15T02:58:30.800Z,101608.78
2022-11-15T03:01:26.458Z,101608.72
2022-11-15T03:04:13.716Z,101594.47
2022-11-15T03:07:21.698Z,101590.28
2022-11-15T03:10:06.738Z,101541.53
2022-11-15T03:12:41.775Z,101595.16
2022-11-15T03:15:47.722Z,101586.25
2022-11-15T03:18:27.579Z,101590.50
2022-11-15T03:21:07.629Z,101551.91
2022-11-15T03:23:47.512Z,101576.72
2022-11-15T03:26:20.295Z,101536.84
2022-11-15T03:29:13.426Z,101556.75
2022-11-15T03:32:04.976Z,101560.56
2022-11-15T03:34:55.066Z,101550.84
2022-11-15T03:37:28.402Z,101471.25
2022-11-15T03:40:02.949Z,101533.00
2022-11-15T03:43:15.291Z,101556.75
2022-11-15T03:46:12.413Z,101572.97
2022-11-15T03:48:55.397Z,101579.44
2022-11-15T03:51:33.456Z,101577.56
2022-11-15T03:54:14.431Z,101556.69
2022-11-15T03:56:42.838Z,101585.84
2022-11-15T03:59:11.143Z,101571.72
2022-11-15T04:01:43.200Z,101576.50
2022-11-15T04:04:13.433Z,101579.16
2022-11-15T04:06:42.877Z,101559.72
2022-11-15T04:09:19.388Z,101575.00
2022-11-15T04:11:55.587Z,101529.88
2022-11-15T04:14:35.040Z,101581.94
2022-11-15T04:17:08.755Z,101560.63
2022-11-15T04:20:06.427Z,101592.00
2022-11-15T04:22:57.442Z,101565.19
2022-11-15T04:25:26.254Z,101548.53
2022-11-15T04:28:04.137Z,101572.91
2022-11-15T04:30:38.481Z,101579.94
2022-11-15T04:33:09.222Z,101573.25
2022-11-15T04:35:38.489Z,101545.66
2022-11-15T04:38:14.036Z,101556.59
2022-11-15T04:40:47.384Z,101552.25
2022-11-15T04:43:21.806Z,101548.44
2022-11-15T04:45:53.151Z,101564.63
2022-11-15T04:48:27.324Z,101559.56
2022-11-15T04:51:00.587Z,101555.75
2022-11-15T04:53:35.364Z,101544.81
2022-11-15T04:56:02.514Z,101561.38
2022-11-15T04:58:32.306Z,101536.88
2022-11-15T05:01:12.088Z,101546.41
2022-11-15T05:04:02.036Z,101555.88
2022-11-15T05:06:37.380Z,101559.03
2022-11-15T05:09:05.205Z,101555.75
2022-11-15T05:11:38.224Z,101546.94
2022-11-15T05:14:09.033Z,101554.28
2022-11-15T05:16:46.949Z,101487.88
2022-11-15T05:19:16.689Z,101547.25
2022-11-15T05:21:50.275Z,101516.00
2022-11-15T05:24:19.664Z,101544.41
2022-11-15T05:26:46.309Z,101575.88
2022-11-15T05:29:15.872Z,101558.72
2022-11-15T05:31:43.600Z,101568.47
2022-11-15T05:34:10.778Z,101558.09
2022-11-15T05:36:53.689Z,101549.38
2022-11-15T05:39:29.377Z,101551.63
2022-11-15T05:42:21.668Z,101546.22
2022-11-15T05:44:56.281Z,101569.53
2022-11-15T05:47:35.782Z,101556.16
2022-11-15T05:50:10.857Z,101551.25
2022-11-15T05:52:38.789Z,101552.22
2022-11-15T05:55:22.062Z,101542.78
2022-11-15T05:57:52.884Z,101557.41
2022-11-15T06:00:26.431Z,101519.13
2022-11-15T06:03:07.577Z,101547.66
2022-11-15T06:05:34.981Z,101519.03
2022-11-15T06:08:16.584Z,101554.66
2022-11-15T06:10:43.870Z,101536.22
2022-11-15T06:13:17.055Z,101541.94
2022-11-15T06:15:52.187Z,101524.94
2022-11-15T06:18:31.850Z,101557.31
2022-11-15T06:21:09.517Z,101534.53
2022-11-15T06:23:38.874Z,101539.25
2022-11-15T06:26:14.370Z,101540.31
2022-11-15T06:28:41.240Z,101497.78
2022-11-15T06:31:20.886Z,101536.97
2022-11-15T06:33:52.719Z,101550.44
2022-11-15T06:36:22.417Z,101562.00
2022-11-15T06:38:55.012Z,101554.91
2022-11-15T06:41:24.832Z,101573.03
2022-11-15T06:43:51.849Z,101555.53
2022-11-15T06:46:18.693Z,101560.31
2022-11-15T06:48:52.116Z,101574.34
2022-11-15T06:51:24.990Z,101541.97
2022-11-15T06:53:52.326Z,101560.81
2022-11-15T06:56:36.557Z,101488.84
2022-11-15T06:59:11.126Z,101545.84
2022-11-15T07:01:58.063Z,101548.31
2022-11-15T07:07:41.470Z,101542.34
2022-11-15T07:10:09.362Z,101560.91
2022-11-15T07:12:36.761Z,101558.44
2022-11-15T07:15:07.480Z,101552.63
2022-11-15T07:17:45.489Z,101548.81
2022-11-15T07:20:17.693Z,101542.03
2022-11-15T07:22:48.557Z,101560.91
2022-11-15T07:25:15.239Z,101550.88
2022-11-15T07:27:44.279Z,101546.19
2022-11-15T07:30:14.457Z,101558.78
2022-11-15T07:32:50.069Z,101568.00
2022-11-15T07:35:23.381Z,101535.38
2022-11-15T07:38:10.377Z,101527.41
2022-11-15T07:40:37.781Z,101532.81
2022-11-15T07:43:15.103Z,101552.97
2022-11-15T07:45:44.015Z,101501.94
2022-11-15T07:48:10.753Z,101556.13
2022-11-15T07:50:38.107Z,101560.28
2022-11-15T07:53:12.311Z,101510.16
2022-11-15T07:55:41.986Z,101525.19
2022-11-15T07:58:20.771Z,101532.72
2022-11-15T08:00:59.830Z,101525.75
2022-11-15T08:03:33.551Z,101510.06
2022-11-15T08:06:08.835Z,101570.06
2022-11-15T08:08:41.527Z,101556.78
2022-11-15T08:11:17.986Z,101545.66
2022-11-15T08:13:45.566Z,101553.66
2022-11-15T08:16:19.050Z,101547.38
2022-11-15T08:18:46.128Z,101515.59
2022-11-15T08:21:24.661Z,101550.06
2022-11-15T08:24:02.637Z,101548.16
2022-11-15T08:26:41.286Z,101560.44
2022-11-15T08:29:20.622Z,101529.13
2022-11-15T08:31:57.853Z,101539.19
2022-11-15T08:34:27.699Z,101561.91
2022-11-15T08:37:21.529Z,101526.94
2022-11-15T08:40:00.834Z,101523.94
2022-11-15T08:42:29.001Z,101484.78
2022-11-15T08:45:13.354Z,101534.00
2022-11-15T08:47:47.353Z,101512.75
2022-11-15T08:50:18.401Z,101530.03
2022-11-15T08:52:55.124Z,101488.19
2022-11-15T08:55:42.361Z,101539.47
2022-11-15T08:58:09.221Z,101527.13
2022-11-15T09:00:35.975Z,101408.19
2022-11-15T09:03:10.344Z,101510.34
2022-11-15T09:05:38.754Z,101410.00
2022-11-15T09:08:46.032Z,101512.03
2022-11-15T09:11:24.657Z,101531.50
2022-11-15T09:14:00.630Z,101512.41
2022-11-15T09:16:29.037Z,101535.38
2022-11-15T09:19:04.582Z,101519.91
2022-11-15T09:21:47.701Z,101517.50
2022-11-15T09:24:20.911Z,101524.03
2022-11-15T09:27:00.505Z,101523.03
2022-11-15T09:29:48.399Z,101477.94
2022-11-15T09:32:39.180Z,101533.31
2022-11-15T09:35:30.831Z,101533.22
2022-11-15T09:38:05.948Z,101522.31
2022-11-15T09:40:58.003Z,101485.44
2022-11-15T09:44:17.978Z,101518.69
2022-11-15T09:47:17.689Z,101520.63
2022-11-15T09:50:06.860Z,101490.53
2022-11-15T09:52:48.767Z,101499.56
2022-11-15T09:55:46.551Z,101379.47
2022-11-15T09:59:16.776Z,101498.56
2022-11-15T10:02:31.931Z,101461.63
2022-11-15T10:08:46.221Z,101505.91
2022-11-15T10:11:52.333Z,101499.25
2022-11-15T10:14:36.171Z,101464.66
2022-11-15T10:17:32.352Z,101425.75
2022-11-15T10:20:22.751Z,101449.31
2022-11-15T10:23:15.649Z,101438.84
2022-11-15T10:25:51.567Z,101468.06
2022-11-15T10:28:42.095Z,101465.97
2022-11-15T10:31:27.147Z,101460.97
2022-11-15T10:34:27.541Z,101455.44
2022-11-15T10:37:10.569Z,101439.69
2022-11-15T10:39:37.257Z,101429.88
2022-11-15T10:42:51.284Z,101428.91
2022-11-15T10:45:47.349Z,101434.63
2022-11-15T10:48:21.694Z,101430.25
2022-11-15T10:50:53.116Z,101408.16
2022-11-15T10:53:53.355Z,101420.72
2022-11-15T10:56:33.224Z,101327.59
2022-11-15T10:59:05.771Z,101404.88
2022-11-15T11:01:47.868Z,101394.25
2022-11-15T11:04:16.627Z,101396.34
2022-11-15T11:07:03.380Z,101390.78
2022-11-15T11:09:44.090Z,101383.66
2022-11-15T11:12:12.406Z,101379.00
2022-11-15T11:14:44.947Z,101383.22
2022-11-15T11:17:28.057Z,101351.16
2022-11-15T11:20:33.079Z,101369.16
2022-11-15T11:23:36.744Z,101362.69
2022-11-15T11:26:25.518Z,101335.97
2022-11-15T11:29:21.782Z,101347.78
2022-11-15T11:32:17.391Z,101228.00
2022-11-15T11:35:25.625Z,101340.09
2022-11-15T11:37:59.126Z,101329.25
2022-11-15T11:40:44.316Z,101290.16
2022-11-15T11:43:31.534Z,101333.47
2022-11-15T11:46:20.110Z,101291.28
2022-11-15T11:49:05.652Z,101319.16
2022-11-15T11:51:47.039Z,101253.94
2022-11-15T11:54:47.941Z,101322.28
2022-11-15T11:57:40.044Z,101288.25
2022-11-15T12:00:35.541Z,101269.84
2022-11-15T12:03:18.357Z,101280.38
2022-11-15T12:05:57.515Z,101299.63
2022-11-15T12:08:54.033Z,101264.22
2022-11-15T12:11:52.213Z,101315.66
2022-11-15T12:14:41.448Z,101255.78
2022-11-15T12:17:27.864Z,101299.31
2022-11-15T12:20:38.418Z,101286.31
2022-11-15T12:23:13.707Z,101295.28
2022-11-15T12:25:56.344Z,101289.09
2022-11-15T12:28:58.263Z,101284.63
2022-11-15T12:31:41.870Z,101209.75
2022-11-15T12:35:06.155Z,101223.09
2022-11-15T12:37:39.131Z,101205.44
2022-11-15T12:40:36.501Z,101259.63
2022-11-15T12:43:22.472Z,101263.25
2022-11-15T12:46:07.765Z,101272.47
2022-11-15T12:48:51.567Z,101205.06
2022-11-15T12:52:07.962Z,101199.53
2022-11-15T12:55:06.717Z,101171.47
2022-11-15T12:57:46.347Z,101202.63
2022-11-15T13:00:31.486Z,101180.97
2022-11-15T13:03:33.328Z,101232.78
2022-11-15T13:06:09.032Z,101207.66
2022-11-15T13:08:59.065Z,101221.06
2022-11-15T13:12:03.275Z,101166.94
2022-11-15T13:14:53.024Z,101210.22
2022-11-15T13:17:49.154Z,101207.91
2022-11-15T13:20:36.945Z,101218.97
2022-11-15T13:23:17.555Z,101206.59
2022-11-15T13:25:51.552Z,101193.09
2022-11-15T13:28:40.910Z,101190.66
2022-11-15T13:31:40.238Z,101148.94
2022-11-15T13:34:53.142Z,101186.53
2022-11-15T13:37:36.009Z,101185.34
2022-11-15T13:40:40.397Z,101191.34
2022-11-15T13:43:22.402Z,101191.06
2022-11-15T13:46:15.372Z,101179.34
2022-11-15T13:48:45.541Z,101180.88
2022-11-15T13:51:25.755Z,101180.16
2022-11-15T13:54:13.457Z,101135.19
2022-11-15T13:56:57.407Z,101170.88
2022-11-15T13:59:38.481Z,101173.41
2022-11-15T14:02:15.369Z,101145.59
2022-11-15T14:04:58.544Z,101158.94
2022-11-15T14:07:44.411Z,101157.03
2022-11-15T14:10:40.981Z,101171.19
2022-11-15T14:13:39.469Z,101081.88
2022-11-15T14:16:22.280Z,101151.53
2022-11-15T14:18:50.748Z,101149.53
2022-11-15T14:21:19.347Z,101140.81
2022-11-15T14:23:57.263Z,101050.56
2022-11-15T14:26:41.419Z,101065.97
2022-11-15T14:29:41.005Z,101134.19
2022-11-15T14:32:38.148Z,101136.56
2022-11-15T14:35:26.692Z,101142.84
2022-11-15T14:37:57.052Z,101027.94
2022-11-15T14:40:28.463Z,101129.06
2022-11-15T14:43:12.394Z,101022.56
2022-11-15T14:45:55.662Z,101122.44
2022-11-15T14:48:27.427Z,101132.19
2022-11-15T14:51:02.730Z,101131.91
2022-11-15T14:53:30.615Z,101133.13
2022-11-15T14:55:57.841Z,101065.97
2022-11-15T14:58:37.816Z,101088.09
2022-11-15T15:01:25.058Z,101065.94
2022-11-15T15:04:02.492Z,101068.19
2022-11-15T15:06:31.799Z,101031.03
2022-11-15T15:09:02.706Z,101073.75
2022-11-15T15:11:35.846Z,101117.56
2022-11-15T15:14:10.048Z,101119.38
2022-11-15T15:16:41.494Z,101102.69
2022-11-15T15:19:08.331Z,101121.25
2022-11-15T15:21:37.974Z,101105.81
2022-11-15T15:24:30.502Z,101106.38
2022-11-15T15:26:57.643Z,101076.22
2022-11-15T15:29:38.568Z,101095.72
2022-11-15T15:32:14.557Z,101088.13
2022-11-15T15:34:54.749Z,101072.41
2022-11-15T15:37:25.150Z,101098.22
2022-11-15T15:40:09.431Z,101101.75
2022-11-15T15:42:47.631Z,101097.38
2022-11-15T15:45:35.906Z,101085.19
2022-11-15T15:48:27.870Z,101082.53
2022-11-15T15:51:16.960Z,101043.84
2022-11-15T15:54:10.376Z,101036.78
2022-11-15T15:56:54.956Z,101093.31
2022-11-15T15:59:42.028Z,101093.16
2022-11-15T16:02:31.764Z,101084.22
2022-11-15T16:05:39.520Z,101064.56
2022-11-15T16:09:08.221Z,101012.63
2022-11-15T16:11:50.207Z,101079.31
2022-11-15T16:14:28.067Z,101069.78
2022-11-15T16:17:08.339Z,101056.00
2022-11-15T16:19:45.659Z,101080.53
2022-11-15T16:22:13.766Z,101032.09
2022-11-15T16:24:53.722Z,101069.63
2022-11-15T16:27:23.069Z,101069.34
2022-11-15T16:30:00.441Z,101052.22
2022-11-15T16:32:36.654Z,101069.06
2022-11-15T16:35:11.453Z,101042.41
2022-11-15T16:37:42.167Z,100988.78
2022-11-15T16:40:46.047Z,101043.84
2022-11-15T16:43:19.294Z,101041.19
2022-11-15T16:45:56.461Z,101005.06
2022-11-15T16:48:33.287Z,101060.69
2022-11-15T16:51:08.183Z,101038.53
2022-11-15T16:53:45.911Z,101045.22
2022-11-15T16:56:33.634Z,101035.44
2022-11-15T16:59:10.063Z,101045.84
2022-11-15T17:01:56.446Z,100910.00
2022-11-15T17:04:38.115Z,100869.59
2022-11-15T17:07:12.870Z,101049.44
2022-11-15T17:10:00.937Z,101040.09
2022-11-15T17:12:28.723Z,101020.56
2022-11-15T17:15:13.342Z,101033.06
2022-11-15T17:17:57.533Z,100922.66
2022-11-15T17:20:35.046Z,101014.56
2022-11-15T17:23:04.733Z,100814.47
2022-11-15T17:25:40.770Z,101023.97
2022-11-15T17:28:14.437Z,100947.09
2022-11-15T17:30:50.791Z,100930.84
2022-11-15T17:33:32.977Z,101007.31
2022-11-15T17:36:18.272Z,100883.75
2022-11-15T17:38:59.131Z,101007.44
2022-11-15T17:41:27.533Z,100987.50
2022-11-15T17:44:08.112Z,100864.09
2022-11-15T17:46:41.757Z,100964.81
2022-11-15T17:49:21.602Z,100843.91
2022-11-15T17:51:50.073Z,101001.94
2022-11-15T17:54:26.346Z,100889.59
2022-11-15T17:56:59.348Z,100969.53
2022-11-15T17:59:27.453Z,100970.53
2022-11-15T18:02:07.853Z,100891.81
2022-11-15T18:04:43.389Z,100943.72
2022-11-15T18:07:12.073Z,100985.56
2022-11-15T18:09:42.330Z,100960.00
2022-11-15T18:12:14.264Z,100976.84
2022-11-15T18:14:50.871Z,100971.00
2022-11-15T18:17:21.045Z,100959.28
2022-11-15T18:19:49.575Z,100931.84
2022-11-15T18:22:28.891Z,100909.00
2022-11-15T18:25:16.436Z,100922.88
2022-11-15T18:27:49.109Z,100929.19
2022-11-15T18:30:25.170Z,100945.16
2022-11-15T18:32:59.867Z,100903.63
2022-11-15T18:35:33.813Z,100942.78
2022-11-15T18:38:14.722Z,100925.66
2022-11-15T18:40:58.943Z,100972.72
2022-11-15T18:43:43.908Z,100970.50
2022-11-15T18:46:38.797Z,100956.69
2022-11-15T18:49:29.241Z,100963.56
2022-11-15T18:52:20.872Z,100939.03
2022-11-15T18:55:07.317Z,100934.88
2022-11-15T18:57:49.723Z,100958.16
2022-11-15T19:00:28.588Z,100890.78
2022-11-15T19:02:55.198Z,100882.50
2022-11-15T19:05:40.921Z,100945.25
2022-11-15T19:08:16.519Z,100945.97
2022-11-15T19:10:49.612Z,100897.34
2022-11-15T19:13:17.099Z,100893.16
2022-11-15T19:15:51.575Z,100845.47
2022-11-15T19:18:19.033Z,100946.69
2022-11-15T19:20:45.635Z,100852.22
2022-11-15T19:23:12.173Z,100945.28
2022-11-15T19:25:45.920Z,100946.97
2022-11-15T19:28:29.886Z,100933.06
2022-11-15T19:31:28.998Z,100930.69
2022-11-15T19:34:09.475Z,100906.56
2022-11-15T19:36:43.582Z,100854.41
2022-11-15T19:39:23.861Z,100913.03
2022-11-15T19:42:01.627Z,100854.41
2022-11-15T19:44:45.994Z,100913.31
2022-11-15T19:47:19.619Z,100918.63
2022-11-15T19:49:55.334Z,100874.03
2022-11-15T19:52:33.024Z,100919.75
2022-11-15T19:55:02.038Z,100872.94
2022-11-15T19:57:31.661Z,100926.63
2022-11-15T20:00:10.828Z,100925.91
2022-11-15T20:02:38.236Z,100922.28
2022-11-15T20:05:18.148Z,100915.00
2022-11-15T20:07:58.752Z,100848.56
2022-11-15T20:10:33.158Z,100908.81
2022-11-15T20:13:03.938Z,100879.06
2022-11-15T20:15:45.537Z,100891.66
2022-11-15T20:18:23.741Z,100927.03
2022-11-15T20:21:10.722Z,100924.09
2022-11-15T20:23:49.350Z,100919.75
2022-11-15T20:26:20.769Z,100867.56
2022-11-15T20:28:54.560Z,100913.56
2022-11-15T20:31:26.160Z,100885.53
2022-11-15T20:34:07.172Z,100922.69
2022-11-15T20:36:46.752Z,100913.31
2022-11-15T20:39:25.087Z,100902.38
2022-11-15T20:42:05.512Z,100905.03
2022-11-15T20:44:53.649Z,100892.03
2022-11-15T20:47:26.348Z,100841.84
2022-11-15T20:49:56.601Z,100846.91
2022-11-15T20:52:37.329Z,100847.72
2022-11-15T20:55:10.742Z,100870.44
2022-11-15T20:57:48.190Z,100791.56
2022-11-15T21:00:30.131Z,100898.16
2022-11-15T21:03:13.546Z,100897.59
2022-11-15T21:06:01.790Z,100884.38
2022-11-15T21:09:03.149Z,100884.13
2022-11-15T21:11:58.804Z,100883.03
2022-11-15T21:14:27.893Z,100863.28
2022-11-15T21:17:21.748Z,100803.03
2022-11-15T21:20:01.823Z,100812.72
2022-11-15T21:22:47.683Z,100865.94
2022-11-15T21:25:17.903Z,100853.88
2022-11-15T21:27:53.244Z,100861.31
2022-11-15T21:30:42.018Z,100821.66
2022-11-15T21:33:28.658Z,100846.31
2022-11-15T21:36:20.128Z,100814.38
2022-11-15T21:39:09.021Z,100810.59
2022-11-15T21:42:00.819Z,100833.28
2022-11-15T21:44:52.590Z,100829.50
2022-11-15T21:47:28.866Z,100823.91
2022-11-15T21:50:12.972Z,100825.03
2022-11-15T21:53:02.693Z,100809.91
2022-11-15T21:55:41.269Z,100803.44
2022-11-15T21:58:16.897Z,100819.00
2022-11-15T22:01:11.378Z,100775.16
2022-11-15T22:03:59.675Z,100805.16
2022-11-15T22:06:44.678Z,100799.13
2022-11-15T22:09:34.031Z,100700.13
2022-11-15T22:12:01.474Z,100763.13
2022-11-15T22:14:44.103Z,100719.31
2022-11-15T22:17:11.572Z,100735.56
2022-11-15T22:19:56.423Z,100792.00
2022-11-15T22:22:30.915Z,100785.53
2022-11-15T22:25:05.874Z,100784.59
2022-11-15T22:27:33.136Z,100722.28
2022-11-15T22:30:14.215Z,100778.81
2022-11-15T22:32:45.150Z,100767.63
2022-11-15T22:35:16.471Z,100756.41
2022-11-15T22:37:53.768Z,100736.25
2022-11-15T22:40:30.882Z,100753.22
2022-11-15T22:43:00.384Z,100596.78
2022-11-15T22:45:38.033Z,100728.03
2022-11-15T22:48:09.920Z,100748.75
2022-11-15T22:50:50.480Z,100737.41
2022-11-15T22:53:26.415Z,100711.38
2022-11-15T22:56:00.138Z,100699.75
2022-11-15T22:58:38.819Z,100723.28
2022-11-15T23:01:07.075Z,100722.16
2022-11-15T23:03:59.667Z,100710.81
2022-11-15T23:06:34.428Z,100718.66
2022-11-15T23:09:16.217Z,100706.06
2022-11-15T23:12:18.939Z,100707.19
2022-11-15T23:14:50.836Z,100635.53
2022-11-15T23:17:25.443Z,100723.13
2022-11-15T23:20:16.749Z,100706.06
2022-11-15T23:22:50.927Z,100703.13
2022-11-15T23:25:32.138Z,100686.88
2022-11-15T23:28:12.775Z,100658.34
2022-11-15T23:31:07.299Z,100687.31
2022-11-15T23:33:57.011Z,100662.00
2022-11-15T23:36:34.674Z,100588.13
2022-11-15T23:39:28.816Z,100676.13
2022-11-15T23:41:58.632Z,100657.09
2022-11-15T23:44:26.288Z,100656.53
2022-11-15T23:46:53.982Z,100643.69
2022-11-15T23:49:21.395Z,100663.81
2022-11-15T23:51:56.748Z,100588.56
2022-11-15T23:54:23.781Z,100643.53
2022-11-15T23:56:51.974Z,100632.19
2022-11-15T23:59:27.488Z,100584.94
